Weather at Pranjani / Galovica Polje Airfield

Public forecast

Using degrees Celsius for public forecast. Weather courtesy of forecast.io.

Closest aviation weather report (METAR) to Pranjani / Galovica Polje Airfield

Closest report is Morava Airport, 22.0 nm (40.7 km) SE.

2024/05/30 06:00 (retrieved 31 minutes ago)

LYKV 300600Z VRB01KT CAVOK 17/14 Q1010 NOSIG

Closest aviation forecast (TAF) to Pranjani / Galovica Polje Airfield

Closest forecast is Morava Airport, 22.0 nm (40.7 km) SE.

2024/05/30 06:00 (retrieved 31 minutes ago)

TAF LYKV 300500Z 3006/3106 22008KT CAVOK TX26/3014Z TN12/3103Z TEMPO 3009/3015 22020KT 3000 TSRA SCT027CB BKN037